sensor_id;sensor_type;location;lat;lon;timestamp;P1;durP1;ratioP1;P2;durP2;ratioP2
17917;SDS011;9084;50.956;3.106;2023-03-05T00:01:10;5.57;;;3.90;;
17917;SDS011;9084;50.956;3.106;2023-03-05T00:03:37;3.80;;;3.50;;
17917;SDS011;9084;50.956;3.106;2023-03-05T00:06:04;4.87;;;3.87;;
17917;SDS011;9084;50.956;3.106;2023-03-05T00:08:30;5.77;;;3.73;;
17917;SDS011;9084;50.956;3.106;2023-03-05T00:10:57;4.17;;;3.40;;
17917;SDS011;9084;50.956;3.106;2023-03-05T00:13:24;5.00;;;4.53;;
17917;SDS011;9084;50.956;3.106;2023-03-05T00:15:52;5.57;;;4.73;;
17917;SDS011;9084;50.956;3.106;2023-03-05T00:18:21;5.00;;;4.00;;
17917;SDS011;9084;50.956;3.106;2023-03-05T00:20:47;5.13;;;4.40;;
17917;SDS011;9084;50.956;3.106;2023-03-05T00:23:15;5.20;;;4.40;;
17917;SDS011;9084;50.956;3.106;2023-03-05T00:25:41;7.43;;;5.00;;
17917;SDS011;9084;50.956;3.106;2023-03-05T00:28:07;4.83;;;4.10;;
17917;SDS011;9084;50.956;3.106;2023-03-05T00:30:36;5.40;;;3.90;;
17917;SDS011;9084;50.956;3.106;2023-03-05T00:33:04;4.93;;;4.43;;
17917;SDS011;9084;50.956;3.106;2023-03-05T00:35:29;5.83;;;4.17;;
17917;SDS011;9084;50.956;3.106;2023-03-05T00:37:57;6.90;;;4.93;;
17917;SDS011;9084;50.956;3.106;2023-03-05T00:40:23;6.10;;;4.03;;
17917;SDS011;9084;50.956;3.106;2023-03-05T00:42:48;7.03;;;4.07;;
17917;SDS011;9084;50.956;3.106;2023-03-05T00:45:14;4.20;;;3.83;;
17917;SDS011;9084;50.956;3.106;2023-03-05T00:47:40;6.47;;;4.10;;
17917;SDS011;9084;50.956;3.106;2023-03-05T00:50:08;6.57;;;4.90;;
17917;SDS011;9084;50.956;3.106;2023-03-05T00:52:36;7.37;;;4.40;;
17917;SDS011;9084;50.956;3.106;2023-03-05T00:55:09;5.53;;;4.40;;
17917;SDS011;9084;50.956;3.106;2023-03-05T00:57:37;6.47;;;3.53;;
17917;SDS011;9084;50.956;3.106;2023-03-05T01:00:03;5.50;;;4.30;;
17917;SDS011;9084;50.956;3.106;2023-03-05T01:02:29;8.60;;;6.47;;
17917;SDS011;9084;50.956;3.106;2023-03-05T01:04:55;4.80;;;4.10;;
17917;SDS011;9084;50.956;3.106;2023-03-05T01:07:21;5.20;;;4.10;;
17917;SDS011;9084;50.956;3.106;2023-03-05T01:09:46;5.77;;;3.57;;
17917;SDS011;9084;50.956;3.106;2023-03-05T01:12:12;6.43;;;3.40;;
17917;SDS011;9084;50.956;3.106;2023-03-05T01:14:38;5.77;;;3.90;;
17917;SDS011;9084;50.956;3.106;2023-03-05T01:17:06;5.97;;;4.47;;
17917;SDS011;9084;50.956;3.106;2023-03-05T01:19:34;6.43;;;4.33;;
17917;SDS011;9084;50.956;3.106;2023-03-05T01:22:00;4.70;;;3.83;;
17917;SDS011;9084;50.956;3.106;2023-03-05T01:24:25;7.27;;;4.40;;
17917;SDS011;9084;50.956;3.106;2023-03-05T01:26:51;5.23;;;3.67;;
17917;SDS011;9084;50.956;3.106;2023-03-05T01:29:17;4.50;;;3.37;;
17917;SDS011;9084;50.956;3.106;2023-03-05T01:31:42;7.07;;;3.93;;
17917;SDS011;9084;50.956;3.106;2023-03-05T01:34:08;6.07;;;3.63;;
17917;SDS011;9084;50.956;3.106;2023-03-05T01:36:34;3.40;;;2.97;;
17917;SDS011;9084;50.956;3.106;2023-03-05T01:38:59;4.37;;;3.33;;
17917;SDS011;9084;50.956;3.106;2023-03-05T01:41:25;6.07;;;3.67;;
17917;SDS011;9084;50.956;3.106;2023-03-05T01:43:51;4.27;;;3.00;;
17917;SDS011;9084;50.956;3.106;2023-03-05T01:46:21;4.70;;;3.43;;
17917;SDS011;9084;50.956;3.106;2023-03-05T01:48:49;7.40;;;3.77;;
17917;SDS011;9084;50.956;3.106;2023-03-05T01:51:26;3.80;;;3.03;;
17917;SDS011;9084;50.956;3.106;2023-03-05T01:53:56;4.47;;;3.43;;
17917;SDS011;9084;50.956;3.106;2023-03-05T01:56:26;5.20;;;3.40;;
17917;SDS011;9084;50.956;3.106;2023-03-05T01:58:54;4.90;;;4.00;;
17917;SDS011;9084;50.956;3.106;2023-03-05T02:01:28;6.13;;;3.10;;
17917;SDS011;9084;50.956;3.106;2023-03-05T02:03:58;4.33;;;3.70;;
17917;SDS011;9084;50.956;3.106;2023-03-05T02:06:24;3.93;;;3.50;;
17917;SDS011;9084;50.956;3.106;2023-03-05T02:08:50;5.47;;;4.20;;
17917;SDS011;9084;50.956;3.106;2023-03-05T02:11:20;3.90;;;3.40;;
17917;SDS011;9084;50.956;3.106;2023-03-05T02:13:46;4.67;;;3.33;;
17917;SDS011;9084;50.956;3.106;2023-03-05T02:16:11;5.83;;;4.07;;
17917;SDS011;9084;50.956;3.106;2023-03-05T02:18:37;3.73;;;3.30;;
17917;SDS011;9084;50.956;3.106;2023-03-05T02:23:31;5.60;;;3.30;;
17917;SDS011;9084;50.956;3.106;2023-03-05T02:26:00;4.57;;;4.10;;
17917;SDS011;9084;50.956;3.106;2023-03-05T02:28:39;6.03;;;3.73;;
17917;SDS011;9084;50.956;3.106;2023-03-05T02:31:12;4.07;;;3.03;;
17917;SDS011;9084;50.956;3.106;2023-03-05T02:33:40;4.30;;;3.10;;
17917;SDS011;9084;50.956;3.106;2023-03-05T02:36:09;5.70;;;3.20;;
17917;SDS011;9084;50.956;3.106;2023-03-05T02:38:36;4.90;;;3.03;;
17917;SDS011;9084;50.956;3.106;2023-03-05T02:41:02;3.30;;;2.80;;
17917;SDS011;9084;50.956;3.106;2023-03-05T02:43:28;3.07;;;2.77;;
17917;SDS011;9084;50.956;3.106;2023-03-05T02:45:56;5.50;;;2.97;;
17917;SDS011;9084;50.956;3.106;2023-03-05T02:48:22;2.87;;;2.67;;
17917;SDS011;9084;50.956;3.106;2023-03-05T02:50:47;3.30;;;2.33;;
17917;SDS011;9084;50.956;3.106;2023-03-05T02:53:14;3.50;;;2.83;;
17917;SDS011;9084;50.956;3.106;2023-03-05T02:55:40;4.77;;;2.80;;
17917;SDS011;9084;50.956;3.106;2023-03-05T02:58:06;4.77;;;3.10;;
17917;SDS011;9084;50.956;3.106;2023-03-05T03:00:32;3.23;;;2.83;;
17917;SDS011;9084;50.956;3.106;2023-03-05T03:03:00;5.20;;;2.90;;
17917;SDS011;9084;50.956;3.106;2023-03-05T03:05:26;3.37;;;2.90;;
17917;SDS011;9084;50.956;3.106;2023-03-05T03:07:51;3.37;;;2.40;;
17917;SDS011;9084;50.956;3.106;2023-03-05T03:10:17;4.83;;;2.83;;
17917;SDS011;9084;50.956;3.106;2023-03-05T03:12:43;3.83;;;3.13;;
17917;SDS011;9084;50.956;3.106;2023-03-05T03:15:10;4.40;;;2.50;;
17917;SDS011;9084;50.956;3.106;2023-03-05T03:17:37;5.03;;;3.20;;
17917;SDS011;9084;50.956;3.106;2023-03-05T03:20:03;4.07;;;2.50;;
17917;SDS011;9084;50.956;3.106;2023-03-05T03:22:30;5.40;;;2.77;;
17917;SDS011;9084;50.956;3.106;2023-03-05T03:24:56;3.57;;;3.27;;
17917;SDS011;9084;50.956;3.106;2023-03-05T03:27:24;3.30;;;3.00;;
17917;SDS011;9084;50.956;3.106;2023-03-05T03:29:49;4.40;;;3.60;;
17917;SDS011;9084;50.956;3.106;2023-03-05T03:32:17;3.50;;;3.20;;
17917;SDS011;9084;50.956;3.106;2023-03-05T03:34:43;6.13;;;3.17;;
17917;SDS011;9084;50.956;3.106;2023-03-05T03:37:09;3.93;;;3.20;;
17917;SDS011;9084;50.956;3.106;2023-03-05T03:39:37;4.20;;;3.03;;
17917;SDS011;9084;50.956;3.106;2023-03-05T03:42:03;3.77;;;3.07;;
17917;SDS011;9084;50.956;3.106;2023-03-05T03:44:29;3.97;;;3.10;;
17917;SDS011;9084;50.956;3.106;2023-03-05T03:46:54;3.80;;;3.50;;
17917;SDS011;9084;50.956;3.106;2023-03-05T03:49:21;3.73;;;3.43;;
17917;SDS011;9084;50.956;3.106;2023-03-05T03:51:51;5.60;;;3.97;;
17917;SDS011;9084;50.956;3.106;2023-03-05T03:54:22;5.53;;;3.77;;
17917;SDS011;9084;50.956;3.106;2023-03-05T03:56:48;4.00;;;3.70;;
17917;SDS011;9084;50.956;3.106;2023-03-05T03:59:14;4.47;;;4.03;;
17917;SDS011;9084;50.956;3.106;2023-03-05T04:01:42;4.10;;;3.77;;
17917;SDS011;9084;50.956;3.106;2023-03-05T04:04:08;4.47;;;4.07;;
17917;SDS011;9084;50.956;3.106;2023-03-05T04:06:37;4.00;;;3.67;;
17917;SDS011;9084;50.956;3.106;2023-03-05T04:09:03;4.23;;;3.83;;
17917;SDS011;9084;50.956;3.106;2023-03-05T04:11:29;5.27;;;4.40;;
17917;SDS011;9084;50.956;3.106;2023-03-05T04:13:57;4.07;;;3.67;;
17917;SDS011;9084;50.956;3.106;2023-03-05T04:16:23;5.00;;;3.87;;
17917;SDS011;9084;50.956;3.106;2023-03-05T04:18:48;4.80;;;4.40;;
17917;SDS011;9084;50.956;3.106;2023-03-05T04:21:17;5.13;;;4.33;;
17917;SDS011;9084;50.956;3.106;2023-03-05T04:23:45;5.77;;;4.63;;
17917;SDS011;9084;50.956;3.106;2023-03-05T04:26:11;4.67;;;4.20;;
17917;SDS011;9084;50.956;3.106;2023-03-05T04:28:36;5.27;;;4.77;;
17917;SDS011;9084;50.956;3.106;2023-03-05T04:31:02;5.40;;;4.70;;
17917;SDS011;9084;50.956;3.106;2023-03-05T04:33:31;4.00;;;3.70;;
17917;SDS011;9084;50.956;3.106;2023-03-05T04:35:57;4.93;;;4.53;;
17917;SDS011;9084;50.956;3.106;2023-03-05T04:38:23;5.17;;;4.47;;
17917;SDS011;9084;50.956;3.106;2023-03-05T04:40:49;5.90;;;4.40;;
17917;SDS011;9084;50.956;3.106;2023-03-05T04:43:14;4.27;;;3.87;;
17917;SDS011;9084;50.956;3.106;2023-03-05T04:45:40;5.07;;;4.10;;
17917;SDS011;9084;50.956;3.106;2023-03-05T04:48:07;4.93;;;4.37;;
17917;SDS011;9084;50.956;3.106;2023-03-05T04:50:33;4.30;;;3.53;;
17917;SDS011;9084;50.956;3.106;2023-03-05T04:52:59;4.63;;;3.90;;
17917;SDS011;9084;50.956;3.106;2023-03-05T04:55:25;4.27;;;3.90;;
17917;SDS011;9084;50.956;3.106;2023-03-05T04:57:51;4.20;;;3.80;;
17917;SDS011;9084;50.956;3.106;2023-03-05T05:00:17;4.40;;;4.00;;
17917;SDS011;9084;50.956;3.106;2023-03-05T05:02:43;4.97;;;4.47;;
17917;SDS011;9084;50.956;3.106;2023-03-05T05:05:11;4.53;;;4.07;;
17917;SDS011;9084;50.956;3.106;2023-03-05T05:07:39;4.13;;;3.73;;
17917;SDS011;9084;50.956;3.106;2023-03-05T05:10:05;4.73;;;3.80;;
17917;SDS011;9084;50.956;3.106;2023-03-05T05:12:34;4.10;;;3.70;;
17917;SDS011;9084;50.956;3.106;2023-03-05T05:15:02;4.43;;;3.63;;
17917;SDS011;9084;50.956;3.106;2023-03-05T05:17:29;4.70;;;3.87;;
17917;SDS011;9084;50.956;3.106;2023-03-05T05:19:57;3.77;;;3.47;;
17917;SDS011;9084;50.956;3.106;2023-03-05T05:22:23;4.47;;;3.50;;
17917;SDS011;9084;50.956;3.106;2023-03-05T05:24:51;5.03;;;3.07;;
17917;SDS011;9084;50.956;3.106;2023-03-05T05:27:17;5.33;;;3.60;;
17917;SDS011;9084;50.956;3.106;2023-03-05T05:29:45;4.00;;;3.60;;
17917;SDS011;9084;50.956;3.106;2023-03-05T05:32:14;3.37;;;2.90;;
17917;SDS011;9084;50.956;3.106;2023-03-05T05:34:42;3.33;;;3.10;;
17917;SDS011;9084;50.956;3.106;2023-03-05T05:37:11;3.13;;;2.93;;
17917;SDS011;9084;50.956;3.106;2023-03-05T05:39:38;4.10;;;2.63;;
17917;SDS011;9084;50.956;3.106;2023-03-05T05:42:06;3.33;;;3.03;;
17917;SDS011;9084;50.956;3.106;2023-03-05T05:44:32;4.87;;;3.17;;
17917;SDS011;9084;50.956;3.106;2023-03-05T05:47:00;4.27;;;3.17;;
17917;SDS011;9084;50.956;3.106;2023-03-05T05:49:28;5.53;;;3.60;;
17917;SDS011;9084;50.956;3.106;2023-03-05T05:51:56;4.07;;;3.73;;
17917;SDS011;9084;50.956;3.106;2023-03-05T05:54:24;7.20;;;3.73;;
17917;SDS011;9084;50.956;3.106;2023-03-05T05:56:52;4.73;;;4.23;;
17917;SDS011;9084;50.956;3.106;2023-03-05T05:59:18;4.10;;;3.70;;
17917;SDS011;9084;50.956;3.106;2023-03-05T06:01:46;3.30;;;3.00;;
17917;SDS011;9084;50.956;3.106;2023-03-05T06:04:11;3.13;;;2.83;;
17917;SDS011;9084;50.956;3.106;2023-03-05T06:06:37;3.27;;;2.97;;
17917;SDS011;9084;50.956;3.106;2023-03-05T06:09:08;3.17;;;2.80;;
17917;SDS011;9084;50.956;3.106;2023-03-05T06:11:33;2.27;;;2.07;;
17917;SDS011;9084;50.956;3.106;2023-03-05T06:13:59;4.63;;;2.50;;
17917;SDS011;9084;50.956;3.106;2023-03-05T06:16:27;2.20;;;2.00;;
17917;SDS011;9084;50.956;3.106;2023-03-05T06:18:53;2.40;;;2.13;;
17917;SDS011;9084;50.956;3.106;2023-03-05T06:21:21;2.90;;;2.00;;
17917;SDS011;9084;50.956;3.106;2023-03-05T06:23:47;3.57;;;1.93;;
17917;SDS011;9084;50.956;3.106;2023-03-05T06:26:15;3.00;;;1.70;;
17917;SDS011;9084;50.956;3.106;2023-03-05T06:28:43;2.60;;;1.97;;
17917;SDS011;9084;50.956;3.106;2023-03-05T06:31:12;2.57;;;1.80;;
17917;SDS011;9084;50.956;3.106;2023-03-05T06:33:40;2.87;;;1.83;;
17917;SDS011;9084;50.956;3.106;2023-03-05T06:36:07;2.40;;;2.20;;
17917;SDS011;9084;50.956;3.106;2023-03-05T06:38:39;2.53;;;1.47;;
17917;SDS011;9084;50.956;3.106;2023-03-05T06:41:11;2.00;;;1.80;;
17917;SDS011;9084;50.956;3.106;2023-03-05T06:43:39;2.70;;;1.73;;
17917;SDS011;9084;50.956;3.106;2023-03-05T06:46:08;2.30;;;1.60;;
17917;SDS011;9084;50.956;3.106;2023-03-05T06:48:41;2.47;;;1.80;;
17917;SDS011;9084;50.956;3.106;2023-03-05T06:51:17;2.37;;;2.13;;
17917;SDS011;9084;50.956;3.106;2023-03-05T06:53:47;1.97;;;1.87;;
17917;SDS011;9084;50.956;3.106;2023-03-05T06:56:14;2.00;;;1.80;;
17917;SDS011;9084;50.956;3.106;2023-03-05T06:58:41;2.60;;;2.10;;
17917;SDS011;9084;50.956;3.106;2023-03-05T07:01:11;2.27;;;2.10;;
17917;SDS011;9084;50.956;3.106;2023-03-05T07:03:38;3.37;;;2.27;;
17917;SDS011;9084;50.956;3.106;2023-03-05T07:06:04;2.20;;;2.00;;
17917;SDS011;9084;50.956;3.106;2023-03-05T07:08:32;3.63;;;1.93;;
17917;SDS011;9084;50.956;3.106;2023-03-05T07:10:58;3.10;;;2.03;;
17917;SDS011;9084;50.956;3.106;2023-03-05T07:13:26;3.30;;;1.90;;
17917;SDS011;9084;50.956;3.106;2023-03-05T07:15:52;1.90;;;1.57;;
17917;SDS011;9084;50.956;3.106;2023-03-05T07:18:23;2.70;;;2.23;;
17917;SDS011;9084;50.956;3.106;2023-03-05T07:20:48;5.30;;;2.23;;
17917;SDS011;9084;50.956;3.106;2023-03-05T07:23:18;2.13;;;1.37;;
17917;SDS011;9084;50.956;3.106;2023-03-05T07:25:46;1.57;;;1.47;;
17917;SDS011;9084;50.956;3.106;2023-03-05T07:28:12;1.80;;;1.20;;
17917;SDS011;9084;50.956;3.106;2023-03-05T07:30:42;2.03;;;1.60;;
17917;SDS011;9084;50.956;3.106;2023-03-05T07:33:08;2.20;;;1.40;;
17917;SDS011;9084;50.956;3.106;2023-03-05T07:35:38;1.37;;;1.27;;
17917;SDS011;9084;50.956;3.106;2023-03-05T07:38:04;1.50;;;1.40;;
17917;SDS011;9084;50.956;3.106;2023-03-05T07:40:30;2.07;;;1.23;;
17917;SDS011;9084;50.956;3.106;2023-03-05T07:42:55;1.93;;;1.40;;
17917;SDS011;9084;50.956;3.106;2023-03-05T07:45:21;1.80;;;1.37;;
17917;SDS011;9084;50.956;3.106;2023-03-05T07:47:47;2.53;;;1.20;;
17917;SDS011;9084;50.956;3.106;2023-03-05T07:50:12;2.40;;;1.10;;
17917;SDS011;9084;50.956;3.106;2023-03-05T07:52:38;2.37;;;1.07;;
17917;SDS011;9084;50.956;3.106;2023-03-05T07:55:06;1.23;;;1.00;;
17917;SDS011;9084;50.956;3.106;2023-03-05T07:57:32;1.20;;;0.70;;
17917;SDS011;9084;50.956;3.106;2023-03-05T07:59:59;1.20;;;0.83;;
17917;SDS011;9084;50.956;3.106;2023-03-05T08:02:25;0.93;;;0.83;;
17917;SDS011;9084;50.956;3.106;2023-03-05T08:04:50;1.13;;;0.90;;
17917;SDS011;9084;50.956;3.106;2023-03-05T08:07:18;1.10;;;0.97;;
17917;SDS011;9084;50.956;3.106;2023-03-05T08:09:44;1.07;;;0.80;;
17917;SDS011;9084;50.956;3.106;2023-03-05T08:12:09;2.67;;;0.80;;
17917;SDS011;9084;50.956;3.106;2023-03-05T08:14:38;2.60;;;0.87;;
17917;SDS011;9084;50.956;3.106;2023-03-05T08:17:03;0.70;;;0.70;;
17917;SDS011;9084;50.956;3.106;2023-03-05T08:19:31;1.03;;;0.80;;
17917;SDS011;9084;50.956;3.106;2023-03-05T08:21:57;0.80;;;0.80;;
17917;SDS011;9084;50.956;3.106;2023-03-05T08:24:25;2.00;;;0.77;;
17917;SDS011;9084;50.956;3.106;2023-03-05T08:26:53;3.03;;;1.07;;
17917;SDS011;9084;50.956;3.106;2023-03-05T08:29:23;1.67;;;0.90;;
17917;SDS011;9084;50.956;3.106;2023-03-05T08:31:51;1.23;;;0.60;;
17917;SDS011;9084;50.956;3.106;2023-03-05T08:34:18;0.70;;;0.60;;
17917;SDS011;9084;50.956;3.106;2023-03-05T08:36:49;0.80;;;0.65;;
17917;SDS011;9084;50.956;3.106;2023-03-05T08:39:17;1.70;;;0.70;;
17917;SDS011;9084;50.956;3.106;2023-03-05T08:41:43;0.97;;;0.70;;
17917;SDS011;9084;50.956;3.106;2023-03-05T08:44:09;1.03;;;0.80;;
17917;SDS011;9084;50.956;3.106;2023-03-05T08:46:37;1.13;;;0.80;;
17917;SDS011;9084;50.956;3.106;2023-03-05T08:49:04;0.73;;;0.57;;
17917;SDS011;9084;50.956;3.106;2023-03-05T08:51:31;1.77;;;1.08;;
17917;SDS011;9084;50.956;3.106;2023-03-05T08:53:57;2.00;;;0.88;;
17917;SDS011;9084;50.956;3.106;2023-03-05T08:56:27;1.92;;;1.20;;
17917;SDS011;9084;50.956;3.106;2023-03-05T08:58:56;1.55;;;1.13;;
17917;SDS011;9084;50.956;3.106;2023-03-05T09:01:24;1.47;;;1.03;;
17917;SDS011;9084;50.956;3.106;2023-03-05T09:03:49;1.60;;;1.10;;
17917;SDS011;9084;50.956;3.106;2023-03-05T09:06:18;1.07;;;0.97;;
17917;SDS011;9084;50.956;3.106;2023-03-05T09:08:46;1.40;;;1.00;;
17917;SDS011;9084;50.956;3.106;2023-03-05T09:11:12;1.50;;;1.20;;
17917;SDS011;9084;50.956;3.106;2023-03-05T09:13:38;0.73;;;0.73;;
17917;SDS011;9084;50.956;3.106;2023-03-05T09:16:05;2.17;;;0.80;;
17917;SDS011;9084;50.956;3.106;2023-03-05T09:18:35;1.47;;;0.83;;
17917;SDS011;9084;50.956;3.106;2023-03-05T09:21:07;0.70;;;0.70;;
17917;SDS011;9084;50.956;3.106;2023-03-05T09:23:35;1.20;;;0.80;;
17917;SDS011;9084;50.956;3.106;2023-03-05T09:26:07;1.20;;;0.60;;
17917;SDS011;9084;50.956;3.106;2023-03-05T09:28:40;0.70;;;0.63;;
17917;SDS011;9084;50.956;3.106;2023-03-05T09:31:08;1.10;;;0.70;;
17917;SDS011;9084;50.956;3.106;2023-03-05T09:33:34;0.98;;;0.60;;
17917;SDS011;9084;50.956;3.106;2023-03-05T09:36:03;1.15;;;0.70;;
17917;SDS011;9084;50.956;3.106;2023-03-05T09:38:39;1.25;;;0.68;;
17917;SDS011;9084;50.956;3.106;2023-03-05T09:41:11;2.25;;;0.60;;
17917;SDS011;9084;50.956;3.106;2023-03-05T09:44:05;1.02;;;0.52;;
17917;SDS011;9084;50.956;3.106;2023-03-05T09:52:05;1.27;;;0.70;;
17917;SDS011;9084;50.956;3.106;2023-03-05T09:54:37;1.13;;;0.60;;
17917;SDS011;9084;50.956;3.106;2023-03-05T09:57:11;1.03;;;0.70;;
17917;SDS011;9084;50.956;3.106;2023-03-05T10:02:17;1.25;;;0.70;;
17917;SDS011;9084;50.956;3.106;2023-03-05T10:04:48;1.77;;;1.00;;
17917;SDS011;9084;50.956;3.106;2023-03-05T10:07:33;1.38;;;0.80;;
17917;SDS011;9084;50.956;3.106;2023-03-05T10:10:25;1.47;;;1.00;;
17917;SDS011;9084;50.956;3.106;2023-03-05T10:13:01;3.08;;;1.25;;
17917;SDS011;9084;50.956;3.106;2023-03-05T10:15:47;1.90;;;1.30;;
17917;SDS011;9084;50.956;3.106;2023-03-05T10:28:56;4.00;;;1.92;;
17917;SDS011;9084;50.956;3.106;2023-03-05T10:47:54;2.87;;;2.40;;
17917;SDS011;9084;50.956;3.106;2023-03-05T10:50:22;3.80;;;2.65;;
17917;SDS011;9084;50.956;3.106;2023-03-05T10:55:43;3.60;;;2.30;;
17917;SDS011;9084;50.956;3.106;2023-03-05T10:58:10;2.67;;;2.20;;
17917;SDS011;9084;50.956;3.106;2023-03-05T11:00:56;4.55;;;2.42;;
17917;SDS011;9084;50.956;3.106;2023-03-05T11:06:35;2.38;;;1.73;;
17917;SDS011;9084;50.956;3.106;2023-03-05T11:14:30;2.97;;;1.02;;
17917;SDS011;9084;50.956;3.106;2023-03-05T11:17:00;1.63;;;0.68;;
17917;SDS011;9084;50.956;3.106;2023-03-05T11:22:06;2.03;;;0.50;;
17917;SDS011;9084;50.956;3.106;2023-03-05T11:27:49;1.65;;;0.63;;
17917;SDS011;9084;50.956;3.106;2023-03-05T11:30:21;5.22;;;0.47;;
17917;SDS011;9084;50.956;3.106;2023-03-05T11:33:24;0.60;;;0.40;;
17917;SDS011;9084;50.956;3.106;2023-03-05T11:35:47;1.40;;;0.30;;
17917;SDS011;9084;50.956;3.106;2023-03-05T11:38:18;1.27;;;0.60;;
17917;SDS011;9084;50.956;3.106;2023-03-05T11:40:51;0.70;;;0.30;;
17917;SDS011;9084;50.956;3.106;2023-03-05T11:43:20;0.38;;;0.32;;
17917;SDS011;9084;50.956;3.106;2023-03-05T11:45:52;0.93;;;0.40;;
17917;SDS011;9084;50.956;3.106;2023-03-05T11:48:26;0.63;;;0.40;;
17917;SDS011;9084;50.956;3.106;2023-03-05T11:50:58;1.52;;;0.60;;
17917;SDS011;9084;50.956;3.106;2023-03-05T11:53:27;1.35;;;0.40;;
17917;SDS011;9084;50.956;3.106;2023-03-05T12:01:22;1.50;;;0.90;;
17917;SDS011;9084;50.956;3.106;2023-03-05T12:03:50;1.90;;;0.80;;
17917;SDS011;9084;50.956;3.106;2023-03-05T12:06:33;3.60;;;0.70;;
17917;SDS011;9084;50.956;3.106;2023-03-05T12:11:52;1.55;;;0.70;;
17917;SDS011;9084;50.956;3.106;2023-03-05T12:14:42;1.52;;;0.60;;
17917;SDS011;9084;50.956;3.106;2023-03-05T12:17:27;1.75;;;0.70;;
17917;SDS011;9084;50.956;3.106;2023-03-05T12:20:04;2.33;;;0.90;;
17917;SDS011;9084;50.956;3.106;2023-03-05T12:22:33;3.08;;;0.80;;
17917;SDS011;9084;50.956;3.106;2023-03-05T12:27:49;2.15;;;0.90;;
17917;SDS011;9084;50.956;3.106;2023-03-05T12:33:03;2.90;;;1.10;;
17917;SDS011;9084;50.956;3.106;2023-03-05T12:35:38;1.30;;;0.90;;
17917;SDS011;9084;50.956;3.106;2023-03-05T12:38:17;2.47;;;0.80;;
17917;SDS011;9084;50.956;3.106;2023-03-05T12:44:08;3.88;;;1.30;;
17917;SDS011;9084;50.956;3.106;2023-03-05T12:46:42;4.38;;;1.42;;
17917;SDS011;9084;50.956;3.106;2023-03-05T12:49:28;3.33;;;1.42;;
17917;SDS011;9084;50.956;3.106;2023-03-05T12:51:59;5.50;;;1.63;;
17917;SDS011;9084;50.956;3.106;2023-03-05T12:54:33;2.65;;;1.10;;
17917;SDS011;9084;50.956;3.106;2023-03-05T12:57:04;3.40;;;1.43;;
17917;SDS011;9084;50.956;3.106;2023-03-05T13:00:01;3.85;;;1.67;;
17917;SDS011;9084;50.956;3.106;2023-03-05T13:02:58;1.98;;;1.65;;
17917;SDS011;9084;50.956;3.106;2023-03-05T13:05:28;3.08;;;1.88;;
17917;SDS011;9084;50.956;3.106;2023-03-05T13:11:03;4.22;;;2.05;;
17917;SDS011;9084;50.956;3.106;2023-03-05T13:13:34;3.95;;;2.10;;
17917;SDS011;9084;50.956;3.106;2023-03-05T13:16:02;1.70;;;1.60;;
17917;SDS011;9084;50.956;3.106;2023-03-05T13:18:29;3.88;;;2.95;;
17917;SDS011;9084;50.956;3.106;2023-03-05T13:21:01;2.45;;;2.17;;
17917;SDS011;9084;50.956;3.106;2023-03-05T13:23:31;3.58;;;2.55;;
17917;SDS011;9084;50.956;3.106;2023-03-05T13:26:14;3.78;;;3.35;;
17917;SDS011;9084;50.956;3.106;2023-03-05T13:29:27;4.43;;;4.00;;
17917;SDS011;9084;50.956;3.106;2023-03-05T13:31:32;5.22;;;4.00;;
17917;SDS011;9084;50.956;3.106;2023-03-05T13:34:16;6.03;;;4.65;;
17917;SDS011;9084;50.956;3.106;2023-03-05T13:37:34;4.60;;;4.18;;
17917;SDS011;9084;50.956;3.106;2023-03-05T13:39:42;5.50;;;4.90;;
17917;SDS011;9084;50.956;3.106;2023-03-05T13:42:22;4.30;;;3.90;;
17917;SDS011;9084;50.956;3.106;2023-03-05T13:44:57;5.82;;;4.43;;
17917;SDS011;9084;50.956;3.106;2023-03-05T13:47:25;6.88;;;5.50;;
17917;SDS011;9084;50.956;3.106;2023-03-05T13:49:59;5.28;;;4.78;;
17917;SDS011;9084;50.956;3.106;2023-03-05T13:52:33;7.70;;;4.78;;
17917;SDS011;9084;50.956;3.106;2023-03-05T13:55:01;5.30;;;4.80;;
17917;SDS011;9084;50.956;3.106;2023-03-05T13:57:37;5.95;;;5.18;;
17917;SDS011;9084;50.956;3.106;2023-03-05T14:05:51;7.28;;;4.72;;
17917;SDS011;9084;50.956;3.106;2023-03-05T14:08:23;6.07;;;5.47;;
17917;SDS011;9084;50.956;3.106;2023-03-05T14:10:50;7.53;;;6.80;;
17917;SDS011;9084;50.956;3.106;2023-03-05T14:13:22;7.00;;;5.32;;
17917;SDS011;9084;50.956;3.106;2023-03-05T14:18:33;6.35;;;5.25;;
17917;SDS011;9084;50.956;3.106;2023-03-05T14:21:06;6.05;;;5.53;;
17917;SDS011;9084;50.956;3.106;2023-03-05T14:29:21;7.80;;;6.97;;
17917;SDS011;9084;50.956;3.106;2023-03-05T14:34:26;8.35;;;7.32;;
17917;SDS011;9084;50.956;3.106;2023-03-05T14:37:04;9.38;;;7.22;;
17917;SDS011;9084;50.956;3.106;2023-03-05T14:42:28;7.43;;;6.78;;
17917;SDS011;9084;50.956;3.106;2023-03-05T14:44:59;7.88;;;7.07;;
17917;SDS011;9084;50.956;3.106;2023-03-05T14:47:38;7.43;;;6.80;;
17917;SDS011;9084;50.956;3.106;2023-03-05T14:50:04;8.52;;;7.53;;
17917;SDS011;9084;50.956;3.106;2023-03-05T14:52:31;10.50;;;8.15;;
17917;SDS011;9084;50.956;3.106;2023-03-05T14:54:57;8.60;;;7.72;;
17917;SDS011;9084;50.956;3.106;2023-03-05T14:57:27;8.98;;;8.07;;
17917;SDS011;9084;50.956;3.106;2023-03-05T14:59:56;9.25;;;8.13;;
17917;SDS011;9084;50.956;3.106;2023-03-05T15:02:22;8.80;;;8.00;;
17917;SDS011;9084;50.956;3.106;2023-03-05T15:04:52;9.63;;;8.63;;
17917;SDS011;9084;50.956;3.106;2023-03-05T15:07:19;8.83;;;8.03;;
17917;SDS011;9084;50.956;3.106;2023-03-05T15:09:54;10.30;;;8.77;;
17917;SDS011;9084;50.956;3.106;2023-03-05T15:12:19;9.20;;;8.30;;
17917;SDS011;9084;50.956;3.106;2023-03-05T15:14:49;10.07;;;7.72;;
17917;SDS011;9084;50.956;3.106;2023-03-05T15:17:19;8.60;;;7.77;;
17917;SDS011;9084;50.956;3.106;2023-03-05T15:19:45;8.87;;;7.70;;
17917;SDS011;9084;50.956;3.106;2023-03-05T15:22:14;8.93;;;8.03;;
17917;SDS011;9084;50.956;3.106;2023-03-05T15:24:41;10.20;;;9.20;;
17917;SDS011;9084;50.956;3.106;2023-03-05T15:27:09;9.48;;;8.57;;
17917;SDS011;9084;50.956;3.106;2023-03-05T15:29:38;11.13;;;9.83;;
17917;SDS011;9084;50.956;3.106;2023-03-05T15:32:07;10.90;;;9.17;;
17917;SDS011;9084;50.956;3.106;2023-03-05T15:34:33;9.17;;;8.13;;
17917;SDS011;9084;50.956;3.106;2023-03-05T15:37:00;9.52;;;8.50;;
17917;SDS011;9084;50.956;3.106;2023-03-05T15:39:26;10.27;;;8.97;;
17917;SDS011;9084;50.956;3.106;2023-03-05T15:41:52;9.95;;;8.95;;
17917;SDS011;9084;50.956;3.106;2023-03-05T15:44:18;9.90;;;9.00;;
17917;SDS011;9084;50.956;3.106;2023-03-05T15:46:44;12.20;;;9.67;;
17917;SDS011;9084;50.956;3.106;2023-03-05T15:49:13;10.80;;;9.75;;
17917;SDS011;9084;50.956;3.106;2023-03-05T15:51:39;10.17;;;9.13;;
17917;SDS011;9084;50.956;3.106;2023-03-05T15:54:04;11.27;;;9.70;;
17917;SDS011;9084;50.956;3.106;2023-03-05T15:56:30;9.57;;;8.17;;
17917;SDS011;9084;50.956;3.106;2023-03-05T15:58:56;10.07;;;9.07;;
17917;SDS011;9084;50.956;3.106;2023-03-05T16:01:22;11.20;;;9.97;;
17917;SDS011;9084;50.956;3.106;2023-03-05T16:03:50;12.00;;;10.80;;
17917;SDS011;9084;50.956;3.106;2023-03-05T16:06:18;11.40;;;10.17;;
17917;SDS011;9084;50.956;3.106;2023-03-05T16:08:47;11.40;;;10.30;;
17917;SDS011;9084;50.956;3.106;2023-03-05T16:11:17;11.43;;;10.10;;
17917;SDS011;9084;50.956;3.106;2023-03-05T16:13:43;11.97;;;10.80;;
17917;SDS011;9084;50.956;3.106;2023-03-05T16:16:09;11.90;;;10.63;;
17917;SDS011;9084;50.956;3.106;2023-03-05T16:18:36;12.10;;;10.90;;
17917;SDS011;9084;50.956;3.106;2023-03-05T16:21:05;11.10;;;10.00;;
17917;SDS011;9084;50.956;3.106;2023-03-05T16:23:36;10.70;;;9.70;;
17917;SDS011;9084;50.956;3.106;2023-03-05T16:26:01;10.73;;;9.73;;
17917;SDS011;9084;50.956;3.106;2023-03-05T16:28:27;11.30;;;10.20;;
17917;SDS011;9084;50.956;3.106;2023-03-05T16:30:57;11.50;;;9.70;;
17917;SDS011;9084;50.956;3.106;2023-03-05T16:33:23;11.10;;;10.10;;
17917;SDS011;9084;50.956;3.106;2023-03-05T16:38:35;10.73;;;9.60;;
17917;SDS011;9084;50.956;3.106;2023-03-05T16:41:02;11.10;;;10.00;;
17917;SDS011;9084;50.956;3.106;2023-03-05T16:43:30;13.47;;;10.60;;
17917;SDS011;9084;50.956;3.106;2023-03-05T16:45:55;12.83;;;10.57;;
17917;SDS011;9084;50.956;3.106;2023-03-05T16:48:21;9.67;;;8.80;;